createdAt,value
2022-10-05T00:00:12.931Z,3.2
2022-10-05T00:02:15.979Z,3.5
2022-10-05T00:04:19.025Z,3.1
2022-10-05T00:06:22.083Z,4
2022-10-05T00:08:25.134Z,3.4
2022-10-05T00:10:28.152Z,2.5
2022-10-05T00:12:34.335Z,3.3
2022-10-05T00:14:37.370Z,4.8
2022-10-05T00:16:40.514Z,2.4
2022-10-05T00:27:17.478Z,3.1
2022-10-05T00:29:20.500Z,2.9
2022-10-05T00:31:23.574Z,2.8
2022-10-05T00:33:26.602Z,2.7
2022-10-05T00:35:29.660Z,3.1
2022-10-05T00:37:32.702Z,3.2
2022-10-05T00:41:41.898Z,2.6
2022-10-05T00:45:48.023Z,2.5
2022-10-05T00:47:51.071Z,2.3
2022-10-05T00:51:57.151Z,2.3
2022-10-05T00:54:04.905Z,1.4
2022-10-05T00:56:07.878Z,3
2022-10-05T00:58:10.930Z,2.3
2022-10-05T01:00:13.966Z,2.1
2022-10-05T01:02:17.070Z,3.1
2022-10-05T01:04:20.052Z,2.5
2022-10-05T01:06:23.114Z,3.9
2022-10-05T01:08:29.269Z,2.2
2022-10-05T01:10:32.340Z,3.4
2022-10-05T01:12:35.383Z,4
2022-10-05T01:13:38.471Z,3.8
2022-10-05T01:15:41.483Z,3.2
2022-10-05T01:19:47.598Z,2.6
2022-10-05T01:21:53.746Z,1.9
2022-10-05T01:23:56.794Z,2.6
2022-10-05T01:25:59.837Z,1.6
2022-10-05T01:28:03.114Z,2.8
2022-10-05T01:30:05.936Z,3.8
2022-10-05T01:32:08.989Z,3.1
2022-10-05T01:34:12.039Z,2.2
2022-10-05T01:36:18.190Z,1.4
2022-10-05T01:38:21.249Z,3.9
2022-10-05T01:40:24.281Z,2.5
2022-10-05T01:42:27.440Z,2.7
2022-10-05T01:44:30.591Z,2.7
2022-10-05T01:46:33.652Z,2.7
2022-10-05T01:48:36.703Z,2.8
2022-10-05T01:50:42.857Z,4.5
2022-10-05T01:52:45.906Z,2.8
2022-10-05T01:54:48.960Z,2.7
2022-10-05T01:56:52.005Z,2.3
2022-10-05T01:58:55.053Z,3.3
2022-10-05T02:00:58.112Z,2.5
2022-10-05T02:03:01.132Z,3
2022-10-05T02:05:07.305Z,3.5
2022-10-05T02:07:10.368Z,3.3
2022-10-05T02:10:16.473Z,3.3
2022-10-05T02:12:19.535Z,3
2022-10-05T02:14:22.571Z,2.1
2022-10-05T02:16:25.762Z,4.1
2022-10-05T02:18:31.776Z,3.4
2022-10-05T02:20:34.821Z,2.2
2022-10-05T02:22:37.885Z,2.9
2022-10-05T02:24:40.923Z,2.5
2022-10-05T02:26:44.382Z,3.2
2022-10-05T02:28:47.032Z,3.6
2022-10-05T02:30:50.157Z,3.5
2022-10-05T02:32:56.350Z,2.6
2022-10-05T02:34:59.498Z,2.9
2022-10-05T02:37:02.643Z,3.1
2022-10-05T02:41:08.961Z,3.4
2022-10-05T02:43:12.090Z,2.9
2022-10-05T02:45:15.259Z,4.4
2022-10-05T02:47:21.631Z,3.7
2022-10-05T02:49:24.808Z,3.2
2022-10-05T02:51:27.953Z,3.8
2022-10-05T02:53:31.068Z,4.8
2022-10-05T02:55:34.167Z,5.6
2022-10-05T03:01:46.905Z,5.3
2022-10-05T03:03:50.008Z,3.7
2022-10-05T03:05:53.167Z,3.8
2022-10-05T03:06:56.365Z,4.1
2022-10-05T03:08:59.506Z,3.9
2022-10-05T03:11:02.655Z,3.1
2022-10-05T03:13:05.842Z,3.7
2022-10-05T03:15:12.216Z,4.2
2022-10-05T03:17:15.379Z,3.4
2022-10-05T03:19:18.512Z,2.9
2022-10-05T03:21:21.694Z,3.7
2022-10-05T03:25:28.012Z,4
2022-10-05T03:29:37.547Z,4.7
2022-10-05T03:31:40.775Z,4.4
2022-10-05T03:35:47.016Z,3.1
2022-10-05T03:37:50.198Z,2.8
2022-10-05T03:39:53.350Z,4.7
2022-10-05T03:41:56.511Z,4.2
2022-10-05T03:46:06.125Z,4.2
2022-10-05T03:54:18.678Z,4.4
2022-10-05T03:56:21.861Z,4.3
2022-10-05T03:58:28.201Z,5.1
2022-10-05T04:00:31.267Z,3.3
2022-10-05T04:02:34.333Z,5.5
2022-10-05T04:04:58.382Z,5.4
2022-10-05T04:15:18.995Z,4.7
2022-10-05T04:17:20.327Z,5
2022-10-05T04:21:26.649Z,4.4
2022-10-05T04:23:29.817Z,5.3
2022-10-05T04:25:36.088Z,3.8
2022-10-05T04:44:07.729Z,3.8
2022-10-05T04:46:10.933Z,4
2022-10-05T04:48:14.044Z,3.6
2022-10-05T04:50:17.111Z,5.2
2022-10-05T04:52:20.173Z,4.1
2022-10-05T04:54:26.544Z,5
2022-10-05T04:56:29.701Z,4
2022-10-05T04:58:32.853Z,3.5
2022-10-05T04:59:36.041Z,3.7
2022-10-05T05:01:39.199Z,4.7
2022-10-05T05:03:42.438Z,3.3
2022-10-05T05:09:55.077Z,2.8
2022-10-05T05:11:58.229Z,2.2
2022-10-05T05:14:01.374Z,3.6
2022-10-05T05:16:04.726Z,2.6
2022-10-05T05:18:07.704Z,1.7
2022-10-05T05:20:10.849Z,3.1
2022-10-05T05:22:17.118Z,3.3
2022-10-05T05:24:20.296Z,2
2022-10-05T05:26:23.464Z,4.4
2022-10-05T05:28:26.695Z,3.3
2022-10-05T05:30:29.664Z,2.7
2022-10-05T05:32:32.811Z,3.4
2022-10-05T05:34:35.843Z,3
2022-10-05T05:36:42.218Z,2.7
2022-10-05T05:38:45.390Z,2.9
2022-10-05T05:40:48.440Z,2.5
2022-10-05T05:42:51.577Z,3.5
2022-10-05T05:44:54.625Z,3.3
2022-10-05T05:47:04.871Z,3.6
2022-10-05T05:49:00.830Z,3.5
2022-10-05T05:51:07.010Z,3.5
2022-10-05T05:53:10.141Z,4.2
2022-10-05T05:55:13.306Z,4.2
2022-10-05T05:56:16.374Z,4.7
2022-10-05T05:58:19.411Z,4.1
2022-10-05T06:00:22.496Z,4.2
2022-10-05T06:02:25.780Z,3.8
2022-10-05T06:04:31.901Z,5.2
2022-10-05T06:06:34.954Z,4
2022-10-05T06:08:38.099Z,4.4
2022-10-05T06:10:41.254Z,3.6
2022-10-05T06:12:44.411Z,3
2022-10-05T06:14:47.570Z,3.6
2022-10-05T06:16:51.052Z,3.5
2022-10-05T06:18:57.110Z,3.5
2022-10-05T06:21:00.249Z,3.9
2022-10-05T06:23:03.429Z,3.3
2022-10-05T06:25:06.552Z,2.9
2022-10-05T06:27:09.734Z,3.7
2022-10-05T06:29:12.758Z,3.3
2022-10-05T06:31:15.937Z,3.7
2022-10-05T06:33:22.311Z,4.6
2022-10-05T06:35:25.449Z,3.5
2022-10-05T06:37:28.506Z,5.1
2022-10-05T06:39:31.669Z,2.4
2022-10-05T06:41:34.821Z,3.6
2022-10-05T06:45:41.193Z,3.7
2022-10-05T06:47:47.476Z,3.8
2022-10-05T06:49:52.203Z,3.3
2022-10-05T06:51:55.317Z,4.3
2022-10-05T06:55:01.672Z,2.7
2022-10-05T06:57:04.841Z,1.8
2022-10-05T07:03:17.475Z,3.6
2022-10-05T07:07:23.786Z,2.7
2022-10-05T07:13:33.136Z,2.3
2022-10-05T07:15:39.508Z,1.9
2022-10-05T07:17:42.575Z,1.9
2022-10-05T07:19:45.620Z,1.3
2022-10-05T07:23:51.815Z,2.3
2022-10-05T07:25:54.989Z,1.6
2022-10-05T07:27:58.182Z,2.1
2022-10-05T07:30:04.517Z,1.2
2022-10-05T07:32:07.547Z,1.5
2022-10-05T07:34:10.708Z,1.6
2022-10-05T07:36:13.886Z,1.1
2022-10-05T07:38:16.916Z,1.2
2022-10-05T07:40:19.964Z,0.9
2022-10-05T07:42:23.028Z,2.6
2022-10-05T07:44:29.202Z,0.6
2022-10-05T07:46:32.411Z,2.1
2022-10-05T07:48:35.307Z,0.4
2022-10-05T07:51:04.941Z,0.6
2022-10-05T07:53:08.004Z,0.9
2022-10-05T07:55:11.058Z,0.5
2022-10-05T07:57:17.231Z,0.5
2022-10-05T07:59:20.271Z,0.1
2022-10-05T08:01:23.422Z,0.9
2022-10-05T08:03:26.367Z,0.9
2022-10-05T08:05:29.434Z,1.3
2022-10-05T08:07:32.474Z,1.3
2022-10-05T08:09:35.508Z,0.7
2022-10-05T08:11:41.679Z,1.5
2022-10-05T08:13:44.731Z,0.3
2022-10-05T08:19:53.868Z,1.1
2022-10-05T08:21:56.891Z,1
2022-10-05T08:23:59.947Z,0.8
2022-10-05T08:26:06.117Z,0.5
2022-10-05T08:30:12.204Z,0.7
2022-10-05T08:32:15.273Z,0.3
2022-10-05T08:34:18.297Z,1.6
2022-10-05T08:38:24.396Z,0.7
2022-10-05T08:40:30.557Z,1.5
2022-10-05T08:42:33.615Z,0.7
2022-10-05T08:44:36.652Z,2.1
2022-10-05T08:45:39.741Z,0.7
2022-10-05T08:47:42.781Z,0.7
2022-10-05T08:49:45.828Z,0.9
2022-10-05T08:51:49.226Z,1.7
2022-10-05T08:53:55.033Z,1.8
2022-10-05T08:55:58.076Z,0.6
2022-10-05T08:58:01.138Z,0.7
2022-10-05T09:00:04.188Z,1.1
2022-10-05T09:02:07.238Z,1.2
2022-10-05T09:04:10.260Z,0.5
2022-10-05T09:06:13.328Z,0.7
2022-10-05T09:08:19.504Z,0.6
2022-10-05T09:10:22.544Z,1
2022-10-05T09:12:25.593Z,0.1
2022-10-05T09:14:28.644Z,0.5
2022-10-05T09:16:31.777Z,0.7
2022-10-05T09:18:34.688Z,0.2
2022-10-05T09:20:37.750Z,0.6
2022-10-05T09:22:43.901Z,0.3
2022-10-05T09:24:48.622Z,1.7
2022-10-05T09:26:49.970Z,0.3
2022-10-05T09:28:53.017Z,0.7
2022-10-05T09:30:56.137Z,0.1
2022-10-05T09:32:59.101Z,0.1
2022-10-05T09:35:02.172Z,0.1
2022-10-05T09:41:14.410Z,0.5
2022-10-05T09:42:17.465Z,3.9
2022-10-05T09:44:20.512Z,0.5
2022-10-05T09:48:26.597Z,0.5
2022-10-05T09:50:32.763Z,1.1
2022-10-05T09:52:35.801Z,0.3
2022-10-05T09:56:41.869Z,0.3
2022-10-05T10:09:03.243Z,0.5
2022-10-05T10:11:06.268Z,0.5
2022-10-05T10:13:09.311Z,1.1
2022-10-05T10:15:12.338Z,0.4
2022-10-05T10:17:15.368Z,1.1
2022-10-05T10:19:21.508Z,0.5
2022-10-05T10:21:24.542Z,0.7
2022-10-05T10:23:27.575Z,0.4
2022-10-05T10:25:30.600Z,0.7
2022-10-05T10:27:33.629Z,0.2
2022-10-05T10:29:36.682Z,0.4
2022-10-05T10:31:39.698Z,0.4
2022-10-05T10:33:45.838Z,0.5
2022-10-05T10:35:48.875Z,0.5
2022-10-05T10:37:51.909Z,0.1
2022-10-05T10:38:54.963Z,0.3
2022-10-05T10:40:57.992Z,0.3
2022-10-05T10:43:01.002Z,0.8
2022-10-05T10:45:04.042Z,0.5
2022-10-05T10:47:10.194Z,0.5
2022-10-05T10:49:13.209Z,0.7
2022-10-05T10:51:16.220Z,0.2
2022-10-05T10:53:19.258Z,0.7
2022-10-05T10:57:25.247Z,0.4
2022-10-05T11:01:34.550Z,0.4
2022-10-05T11:07:43.477Z,1.2
2022-10-05T11:09:46.475Z,0.7
2022-10-05T11:13:52.526Z,0.7
2022-10-05T11:15:58.785Z,0.7
2022-10-05T11:18:01.655Z,0.4
2022-10-05T11:20:05.444Z,1
2022-10-05T11:22:07.702Z,0.4
2022-10-05T11:24:10.690Z,0.5
2022-10-05T11:26:13.699Z,0.6
2022-10-05T11:28:16.781Z,0.4
2022-10-05T11:30:22.853Z,0.1
2022-10-05T11:32:25.883Z,0.6
2022-10-05T11:36:58.329Z,0.1
2022-10-05T11:39:01.361Z,0.1
2022-10-05T11:41:04.347Z,0.3
2022-10-05T11:43:10.464Z,0.1
2022-10-05T11:45:13.463Z,0.6
2022-10-05T11:47:16.494Z,0.2
2022-10-05T11:51:27.788Z,0.2
2022-10-05T11:53:25.550Z,0.4
2022-10-05T11:55:28.566Z,0.3
2022-10-05T12:03:43.819Z,0.1
2022-10-05T12:05:46.722Z,0.3
2022-10-05T12:07:49.731Z,0.6
2022-10-05T12:09:52.764Z,0.2
2022-10-05T12:14:01.892Z,0.3
2022-10-05T12:22:13.894Z,0.2
2022-10-05T12:24:16.896Z,0.2
2022-10-05T12:26:23.015Z,1.3
2022-10-05T12:28:26.101Z,0.2
2022-10-05T12:30:29.032Z,0.3
2022-10-05T12:31:32.243Z,1
2022-10-05T12:33:35.076Z,0.3
2022-10-05T12:35:47.349Z,0.2
2022-10-05T12:37:41.045Z,0.1
2022-10-05T12:39:47.140Z,0.2
2022-10-05T12:41:50.126Z,0.5
2022-10-05T12:43:54.668Z,0.3
2022-10-05T12:45:57.684Z,0.5
2022-10-05T12:48:00.583Z,0.7
2022-10-05T12:50:03.601Z,0.2
2022-10-05T12:52:06.562Z,0.1
2022-10-05T12:54:12.656Z,0.2
2022-10-05T12:56:15.647Z,0.2
2022-10-05T12:58:18.629Z,0.6
2022-10-05T13:00:23.238Z,0.4
2022-10-05T13:02:24.551Z,0.1
2022-10-05T13:04:27.518Z,0.1
2022-10-05T13:08:36.583Z,0.1
2022-10-05T13:10:39.518Z,0.1
2022-10-05T13:12:42.479Z,0.3
2022-10-05T13:14:45.437Z,0.2
2022-10-05T13:16:52.518Z,0.3
2022-10-05T13:20:54.280Z,0.2
2022-10-05T13:25:03.332Z,0.5
2022-10-05T13:27:06.305Z,0.1
2022-10-05T13:30:12.280Z,0.1
2022-10-05T13:36:24.281Z,0.1
2022-10-05T13:38:27.255Z,0.3
2022-10-05T13:42:33.177Z,0.1
2022-10-05T13:44:36.173Z,0.7
2022-10-05T13:46:39.223Z,0.5
2022-10-05T13:48:42.113Z,0.1
2022-10-05T13:50:48.228Z,0.1
2022-10-05T13:52:51.177Z,0.1
2022-10-05T13:54:54.165Z,0.4
2022-10-05T13:56:57.144Z,0.4
2022-10-05T13:59:00.133Z,1
2022-10-05T14:01:03.079Z,0.3
2022-10-05T14:03:06.115Z,0.1
2022-10-05T14:05:12.182Z,0.8
2022-10-05T14:07:15.196Z,0.2
2022-10-05T14:09:18.158Z,0.5
2022-10-05T14:11:21.138Z,0.3
2022-10-05T14:13:24.108Z,0.5
2022-10-05T14:15:27.093Z,0.3
2022-10-05T14:17:32.876Z,0.9
2022-10-05T14:19:36.163Z,0.1
2022-10-05T14:23:42.154Z,0.2
2022-10-05T14:24:45.428Z,0.2
2022-10-05T14:26:48.495Z,0.1
2022-10-05T14:28:51.443Z,0.1
2022-10-05T14:30:56.879Z,0.3
2022-10-05T14:33:00.523Z,0.3
2022-10-05T14:35:03.501Z,0.1
2022-10-05T14:37:06.474Z,0.1
2022-10-05T14:39:09.420Z,1.1
2022-10-05T14:41:12.834Z,0
2022-10-05T14:43:15.328Z,0.3
2022-10-05T14:45:18.291Z,0
2022-10-05T14:47:24.389Z,0.1
2022-10-05T14:53:33.270Z,0.1
2022-10-05T14:55:36.271Z,0.4
2022-10-05T14:59:42.620Z,0.3
2022-10-05T15:03:51.662Z,0.5
2022-10-05T15:05:54.626Z,0.3
2022-10-05T15:10:00.563Z,0.1
2022-10-05T15:12:03.505Z,0.1
2022-10-05T15:14:06.482Z,0.1
2022-10-05T15:16:12.941Z,0
2022-10-05T15:18:15.526Z,0.3
2022-10-05T15:20:18.489Z,0.1
2022-10-05T15:22:41.918Z,0.2
2022-10-05T15:24:44.894Z,0.4
2022-10-05T15:26:47.874Z,0.3
2022-10-05T15:28:53.987Z,0.1
2022-10-05T15:30:57.054Z,0.1
2022-10-05T15:32:59.952Z,0.1
2022-10-05T15:35:02.948Z,0.3
2022-10-05T15:37:05.937Z,0.3
2022-10-05T15:39:08.910Z,0.1
2022-10-05T15:41:11.902Z,0.6
2022-10-05T15:43:18.007Z,0.5
2022-10-05T15:45:21.027Z,0.9
2022-10-05T15:47:24.001Z,0.1
2022-10-05T15:49:26.982Z,0.1
2022-10-05T15:51:29.982Z,0.1
2022-10-05T15:53:32.990Z,0.5
2022-10-05T15:55:35.964Z,0
2022-10-05T15:57:42.100Z,0.1
2022-10-05T15:59:45.083Z,0
2022-10-05T16:01:48.163Z,0.7
2022-10-05T16:03:51.221Z,0.2
2022-10-05T16:05:54.118Z,0.2
2022-10-05T16:07:57.129Z,0.2
2022-10-05T16:10:00.172Z,0.3
2022-10-05T16:12:06.275Z,0.1
2022-10-05T16:16:12.330Z,0
2022-10-05T16:17:15.413Z,0.1
2022-10-05T16:19:18.434Z,0.2
2022-10-05T16:21:21.470Z,0.1
2022-10-05T16:27:33.645Z,0.1
2022-10-05T16:29:36.665Z,0.1
2022-10-05T16:31:39.676Z,0.1
2022-10-05T16:33:46.746Z,0.1
2022-10-05T16:35:45.747Z,0.4
2022-10-05T16:37:48.745Z,0
2022-10-05T16:39:54.898Z,0
2022-10-05T16:41:57.922Z,0.1
2022-10-05T16:46:04.039Z,0.1
2022-10-05T16:50:10.030Z,0.1
2022-10-05T16:52:13.057Z,0.1
2022-10-05T16:54:19.197Z,0.9
2022-10-05T16:56:22.205Z,0
2022-10-05T16:58:25.530Z,0.1
2022-10-05T17:00:28.248Z,0
2022-10-05T17:02:31.330Z,0.1
2022-10-05T17:04:34.311Z,0.1
2022-10-05T17:06:37.332Z,0.1
2022-10-05T17:08:43.501Z,0.1
2022-10-05T17:10:46.537Z,0.2
2022-10-05T17:12:49.543Z,0.5
2022-10-05T17:13:52.610Z,0.3
2022-10-05T17:15:55.728Z,0.2
2022-10-05T17:20:01.742Z,0.1
2022-10-05T17:24:10.910Z,0
2022-10-05T17:26:13.921Z,0.1
2022-10-05T17:28:17.010Z,0.2
2022-10-05T17:30:19.994Z,0.3
2022-10-05T17:32:23.005Z,0.6
2022-10-05T17:34:26.005Z,0.1
2022-10-05T17:36:32.176Z,0.1
2022-10-05T17:38:35.188Z,0.1
2022-10-05T17:40:38.227Z,0.1
2022-10-05T17:42:41.251Z,0.1
2022-10-05T17:44:44.280Z,0.1
2022-10-05T17:46:47.307Z,0.3
2022-10-05T17:53:02.296Z,2.3
2022-10-05T17:55:02.525Z,0.6
2022-10-05T17:57:05.543Z,0.2
2022-10-05T17:59:08.583Z,0.1
2022-10-05T18:01:11.649Z,0
2022-10-05T18:03:14.607Z,0.3
2022-10-05T18:07:23.764Z,0
2022-10-05T18:09:26.790Z,0
2022-10-05T18:10:29.862Z,0.4
2022-10-05T18:12:32.899Z,0.4
2022-10-05T18:14:35.946Z,0.2
2022-10-05T18:16:38.935Z,0.3
2022-10-05T18:18:45.104Z,0.2
2022-10-05T18:20:48.135Z,0.1
2022-10-05T18:22:51.165Z,0.3
2022-10-05T18:24:54.178Z,0.2
2022-10-05T18:26:57.218Z,0.1
2022-10-05T18:29:00.242Z,0.1
2022-10-05T18:31:03.337Z,0.1
2022-10-05T18:33:09.420Z,0.3
2022-10-05T18:35:12.438Z,0.4
2022-10-05T18:37:15.557Z,0.6
2022-10-05T18:41:23.047Z,0.2
2022-10-05T18:43:26.085Z,0.3
2022-10-05T18:45:29.129Z,0.1
2022-10-05T18:47:35.287Z,0.2
2022-10-05T18:49:38.307Z,0.2
2022-10-05T18:53:44.366Z,0.2
2022-10-05T18:55:47.421Z,0.1
2022-10-05T18:57:50.444Z,0.2
2022-10-05T18:59:53.474Z,0.1
2022-10-05T19:01:59.727Z,0.5
2022-10-05T19:04:02.656Z,0.1
2022-10-05T19:06:09.471Z,0.6
2022-10-05T19:08:30.339Z,0.4
2022-10-05T19:10:32.763Z,0.6
2022-10-05T19:14:41.950Z,0.2
2022-10-05T19:16:44.986Z,0.3
2022-10-05T19:18:48.021Z,0.1
2022-10-05T19:22:54.098Z,0.1
2022-10-05T19:24:57.136Z,0
2022-10-05T19:27:00.171Z,0.6
2022-10-05T19:29:06.339Z,0.1
2022-10-05T19:33:12.401Z,0.7
2022-10-05T19:35:15.420Z,0.4
2022-10-05T19:37:18.468Z,0.2
2022-10-05T19:39:21.500Z,1.7
2022-10-05T19:41:24.524Z,0.1
2022-10-05T19:43:30.701Z,0.2
2022-10-05T19:45:33.691Z,0.9
2022-10-05T19:47:40.900Z,0.1
2022-10-05T19:49:39.762Z,0.2
2022-10-05T19:51:42.806Z,0.3
2022-10-05T19:53:45.830Z,0.4
2022-10-05T19:55:48.823Z,0.4
2022-10-05T19:57:55.175Z,0.4
2022-10-05T19:59:58.015Z,0.8
2022-10-05T20:02:01.128Z,0.4
2022-10-05T20:03:04.177Z,0.1
2022-10-05T20:09:13.193Z,0.2
2022-10-05T20:11:19.316Z,0.2
2022-10-05T20:13:22.507Z,0.4
2022-10-05T20:15:25.374Z,0.5
2022-10-05T20:17:28.407Z,0.3
2022-10-05T20:19:31.431Z,0.1
2022-10-05T20:21:34.477Z,0
2022-10-05T20:23:37.487Z,0.1
2022-10-05T20:25:43.650Z,0.2
2022-10-05T20:27:46.692Z,0
2022-10-05T20:29:49.735Z,0
2022-10-05T20:31:52.756Z,0
2022-10-05T20:33:55.815Z,0
2022-10-05T20:35:58.844Z,0
2022-10-05T20:38:01.903Z,0
2022-10-05T20:40:08.060Z,0.1
2022-10-05T20:42:11.103Z,0
2022-10-05T20:44:14.249Z,0
2022-10-05T20:46:17.485Z,0
2022-10-05T20:48:20.567Z,0
2022-10-05T20:50:23.715Z,0
2022-10-05T20:52:26.868Z,0.1
2022-10-05T20:54:33.346Z,0.2
2022-10-05T20:56:36.385Z,0
2022-10-05T20:58:39.564Z,0
2022-10-05T20:59:42.756Z,0
2022-10-05T21:01:45.885Z,0
2022-10-05T21:03:49.042Z,0
2022-10-05T21:05:52.216Z,0
2022-10-05T21:07:58.578Z,0.1
2022-10-05T21:10:01.737Z,0.1
2022-10-05T21:12:04.904Z,0.2
2022-10-05T21:14:08.045Z,0
2022-10-05T21:16:11.262Z,0
2022-10-05T21:18:14.364Z,0.1
2022-10-05T21:20:17.488Z,0
2022-10-05T21:22:23.880Z,0.2
2022-10-05T21:26:30.197Z,0.1
2022-10-05T21:28:33.553Z,0
2022-10-05T21:30:36.508Z,0
2022-10-05T21:32:44.187Z,0.5
2022-10-05T21:34:42.830Z,0.1
2022-10-05T21:36:49.224Z,0.1
2022-10-05T21:38:52.365Z,0
2022-10-05T21:40:55.492Z,0.2
2022-10-05T21:42:58.654Z,0.1
2022-10-05T21:45:01.813Z,0
2022-10-05T21:47:04.950Z,0
2022-10-05T21:49:08.142Z,0
2022-10-05T21:51:14.482Z,0
2022-10-05T21:53:17.651Z,0
2022-10-05T21:55:20.797Z,0
2022-10-05T21:56:23.986Z,0
2022-10-05T21:58:27.412Z,0
2022-10-05T22:00:30.395Z,0
2022-10-05T22:02:33.439Z,0
2022-10-05T22:06:42.932Z,0
2022-10-05T22:08:46.109Z,0.1
2022-10-05T22:10:49.391Z,0
2022-10-05T22:12:52.402Z,0
2022-10-05T22:14:55.571Z,0.1
2022-10-05T22:19:05.099Z,0
2022-10-05T22:21:08.253Z,0
2022-10-05T22:23:11.414Z,0
2022-10-05T22:25:14.546Z,0
2022-10-05T22:27:17.729Z,0.9
2022-10-05T22:29:20.887Z,0
2022-10-05T22:31:24.104Z,0
2022-10-05T22:33:30.365Z,0
2022-10-05T22:35:33.521Z,0.1
2022-10-05T22:37:36.659Z,0
2022-10-05T22:39:39.822Z,0
2022-10-05T22:41:42.966Z,0
2022-10-05T22:43:46.113Z,0.1
2022-10-05T22:45:49.316Z,0
2022-10-05T22:47:55.708Z,0
2022-10-05T22:54:29.589Z,0
2022-10-05T22:56:29.229Z,0
2022-10-05T22:58:32.370Z,0
2022-10-05T23:00:57.498Z,0
2022-10-05T23:02:41.993Z,0.1
2022-10-05T23:04:45.073Z,0.3
2022-10-05T23:06:48.191Z,0
2022-10-05T23:08:51.374Z,0
2022-10-05T23:10:54.536Z,0.1
2022-10-05T23:13:00.776Z,0
2022-10-05T23:15:04.040Z,0.2
2022-10-05T23:17:07.226Z,0.1
2022-10-05T23:19:10.346Z,1.8
2022-10-05T23:21:13.493Z,0.1
2022-10-05T23:23:16.631Z,0.1
2022-10-05T23:25:19.805Z,0.1
2022-10-05T23:27:22.985Z,0.1
2022-10-05T23:29:29.344Z,0.1
2022-10-05T23:31:32.488Z,0.5
2022-10-05T23:33:35.651Z,0.1
2022-10-05T23:35:38.799Z,0.1
2022-10-05T23:37:41.978Z,0.6
2022-10-05T23:39:45.107Z,0.3
2022-10-05T23:41:48.266Z,0.3
2022-10-05T23:43:54.614Z,0
2022-10-05T23:45:57.806Z,0.2
2022-10-05T23:48:00.904Z,0.2
2022-10-05T23:49:04.110Z,0.4
2022-10-05T23:51:07.244Z,0.2
2022-10-05T23:53:10.397Z,0.5
2022-10-05T23:55:13.550Z,0.4
2022-10-05T23:57:19.911Z,0.1
2022-10-05T23:59:23.065Z,0.1
